Time;durP1;ratioP1;P1;durP2;ratioP2;P2;SDS_P1;SDS_P2;PMS_P1;PMS_P2;Temp;Humidity;BMP_temperature;BMP_pressure;BME280_temperature;BME280_humidity;BME280_pressure;Samples;Min_cycle;Max_cycle;Signal;HPM_P1;HPM_P2
2022/06/04 00:01:42;;;;;;;3.40;1.55;;;18.90;84.30;;;;;;5098733;27;45513;-76
2022/06/04 00:04:11;;;;;;;2.88;1.40;;;18.80;83.90;;;;;;5098621;27;46442;-77
2022/06/04 00:06:38;;;;;;;3.95;1.50;;;18.80;83.00;;;;;;5094832;27;45227;-77
2022/06/04 00:09:06;;;;;;;2.42;1.73;;;18.80;84.00;;;;;;5094570;27;45308;-76
2022/06/04 00:17:03;;;;;;;5.57;1.60;;;18.70;84.80;;;;;;5099087;27;45302;-77
2022/06/04 00:19:30;;;;;;;4.15;1.50;;;18.80;84.70;;;;;;5099442;27;45318;-76
2022/06/04 00:21:57;;;;;;;4.78;1.20;;;18.80;84.00;;;;;;5101001;27;45507;-77
2022/06/04 00:24:23;;;;;;;3.40;1.50;;;18.80;83.80;;;;;;5101639;27;45240;-77
2022/06/04 00:26:52;;;;;;;3.55;1.40;;;18.70;82.00;;;;;;5102528;27;45248;-77
2022/06/04 00:29:19;;;;;;;2.70;1.60;;;18.70;84.70;;;;;;5099355;27;45166;-77
2022/06/04 00:31:46;;;;;;;2.88;1.58;;;18.70;83.60;;;;;;5101647;27;45510;-77
2022/06/04 00:34:16;;;;;;;2.83;1.65;;;18.60;85.70;;;;;;5098589;27;45678;-77
2022/06/04 00:36:42;;;;;;;2.22;1.40;;;18.70;84.60;;;;;;5098584;27;45809;-76
2022/06/04 00:39:09;;;;;;;6.15;1.50;;;18.70;85.20;;;;;;5102988;27;45255;-77
2022/06/04 00:41:45;;;;;;;4.07;1.65;;;18.70;85.60;;;;;;5093569;27;45405;-77
2022/06/04 00:45:03;;;;;;;1.42;1.30;;;18.70;84.40;;;;;;5100804;27;46246;-76
2022/06/04 00:47:31;;;;;;;3.25;1.60;;;18.70;82.60;;;;;;5098751;27;45407;-77
2022/06/04 00:49:58;;;;;;;5.60;1.42;;;18.70;85.00;;;;;;5102788;27;45302;-77
2022/06/04 00:52:26;;;;;;;4.75;1.70;;;18.60;85.40;;;;;;5103923;27;45379;-76
2022/06/04 00:54:57;;;;;;;5.88;1.50;;;18.60;85.40;;;;;;5094900;27;45309;-76
2022/06/04 00:57:42;;;;;;;6.82;1.65;;;18.50;85.10;;;;;;5097042;27;45191;-77
2022/06/04 01:00:15;;;;;;;2.95;1.60;;;18.50;84.50;;;;;;5103686;27;45279;-77
2022/06/04 01:03:09;;;;;;;7.15;1.60;;;18.40;86.30;;;;;;5090207;27;45244;-77
2022/06/04 01:05:45;;;;;;;4.65;1.48;;;18.30;86.80;;;;;;5085969;27;45411;-77
2022/06/04 01:08:29;;;;;;;4.85;1.73;;;18.30;85.60;;;;;;5100580;27;45155;-77
2022/06/04 01:11:05;;;;;;;5.72;1.58;;;18.30;86.90;;;;;;5098997;27;45252;-77
2022/06/04 01:13:44;;;;;;;2.78;1.27;;;18.20;87.10;;;;;;5100975;27;45279;-76
2022/06/04 01:16:16;;;;;;;2.97;1.30;;;18.20;87.30;;;;;;5095657;27;47822;-77
2022/06/04 01:18:54;;;;;;;3.80;1.58;;;18.30;86.80;;;;;;5095897;27;45232;-77
2022/06/04 01:21:25;;;;;;;9.50;2.30;;;18.30;86.60;;;;;;5100888;27;45226;-77
2022/06/04 01:24:28;;;;;;;4.35;1.63;;;18.20;85.80;;;;;;5099619;27;45293;-77
2022/06/04 01:27:15;;;;;;;1.85;1.65;;;18.20;87.70;;;;;;5093965;27;45329;-77
2022/06/04 01:29:49;;;;;;;2.60;1.45;;;18.20;86.80;;;;;;5097097;27;45269;-77
2022/06/04 01:32:22;;;;;;;2.85;1.50;;;18.20;85.80;;;;;;5106742;27;45136;-77
2022/06/04 01:34:56;;;;;;;3.22;1.52;;;18.10;87.40;;;;;;5097422;27;45441;-77
2022/06/04 01:37:29;;;;;;;6.38;1.98;;;18.10;86.70;;;;;;5098793;27;45563;-76
2022/06/04 01:42:46;;;;;;;6.35;1.63;;;18.10;87.20;;;;;;5092721;27;45117;-76
2022/06/04 01:45:16;;;;;;;2.42;1.42;;;18.00;86.00;;;;;;5103295;27;45334;-76
2022/06/04 01:47:46;;;;;;;10.38;1.90;;;18.00;86.20;;;;;;5097474;27;47354;-76
2022/06/04 01:50:18;;;;;;;4.35;1.40;;;18.00;87.10;;;;;;5099044;27;45201;-77
2022/06/04 01:52:48;;;;;;;1.63;1.27;;;18.00;85.50;;;;;;5095210;27;45498;-76
2022/06/04 01:55:21;;;;;;;2.15;1.75;;;18.10;86.50;;;;;;5100614;27;46128;-77
2022/06/04 01:57:55;;;;;;;2.85;1.42;;;18.10;87.20;;;;;;5098294;27;47976;-76
2022/06/04 02:00:25;;;;;;;2.20;1.38;;;18.10;85.30;;;;;;5109610;27;46220;-77
2022/06/04 02:02:56;;;;;;;4.18;1.70;;;18.10;86.80;;;;;;5102477;27;45239;-76
2022/06/04 02:05:28;;;;;;;3.30;1.83;;;18.20;85.70;;;;;;5100728;27;45361;-77
2022/06/04 02:07:57;;;;;;;4.20;1.52;;;18.10;84.90;;;;;;5102827;27;46450;-77
2022/06/04 02:10:28;;;;;;;2.15;1.50;;;18.20;86.30;;;;;;5099030;27;45471;-76
2022/06/04 02:13:00;;;;;;;2.33;1.45;;;18.20;85.40;;;;;;5097568;27;45387;-77
2022/06/04 02:15:36;;;;;;;2.22;1.50;;;18.20;85.60;;;;;;5101032;27;45263;-77
2022/06/04 02:18:04;;;;;;;1.90;1.60;;;18.20;83.70;;;;;;5097810;27;47444;-77
2022/06/04 02:20:31;;;;;;;4.38;1.98;;;18.10;86.00;;;;;;5105796;27;45156;-77
2022/06/04 02:22:59;;;;;;;2.42;1.60;;;18.20;86.00;;;;;;5102562;27;45235;-77
2022/06/04 02:25:28;;;;;;;3.67;1.50;;;18.10;85.70;;;;;;5098116;27;45269;-77
2022/06/04 02:27:58;;;;;;;4.70;1.60;;;18.10;86.40;;;;;;5096911;27;45274;-77
2022/06/04 02:30:26;;;;;;;5.15;1.90;;;18.10;86.70;;;;;;5099927;27;45171;-77
2022/06/04 02:33:04;;;;;;;5.20;1.67;;;18.10;86.70;;;;;;5096760;27;45326;-77
2022/06/04 02:35:36;;;;;;;4.13;1.60;;;18.10;86.40;;;;;;5101372;27;45314;-77
2022/06/04 02:38:12;;;;;;;2.75;1.83;;;18.10;86.60;;;;;;5107041;27;45321;-77
2022/06/04 02:40:45;;;;;;;3.20;1.63;;;18.10;87.20;;;;;;5102305;27;46285;-77
2022/06/04 02:43:18;;;;;;;3.53;1.73;;;18.10;86.50;;;;;;5108874;27;45206;-77
2022/06/04 02:45:52;;;;;;;3.67;1.55;;;18.10;86.40;;;;;;5099724;27;46129;-77
2022/06/04 02:48:26;;;;;;;6.20;1.60;;;18.00;87.70;;;;;;5106543;27;48000;-77
2022/06/04 02:50:56;;;;;;;2.75;1.83;;;18.10;88.60;;;;;;5095735;27;45212;-77
2022/06/04 02:53:26;;;;;;;3.17;1.73;;;18.10;87.10;;;;;;5107928;27;45282;-77
2022/06/04 02:55:56;;;;;;;4.85;1.90;;;18.10;86.90;;;;;;5104363;27;45629;-77
2022/06/04 02:58:26;;;;;;;4.55;1.88;;;18.10;85.40;;;;;;5099575;27;45495;-77
2022/06/04 03:00:56;;;;;;;3.42;2.03;;;17.90;87.00;;;;;;5098921;27;45180;-77
2022/06/04 03:03:23;;;;;;;3.50;2.38;;;17.90;88.60;;;;;;5096051;27;45501;-77
2022/06/04 03:05:52;;;;;;;5.22;2.03;;;17.80;87.30;;;;;;5102693;27;45763;-77
2022/06/04 03:08:19;;;;;;;2.47;1.52;;;17.70;88.40;;;;;;5097378;27;47460;-77
2022/06/04 03:10:46;;;;;;;3.25;1.95;;;17.70;89.70;;;;;;5103513;27;45272;-77
2022/06/04 03:13:13;;;;;;;8.68;1.85;;;17.80;88.80;;;;;;5100000;27;45151;-77
2022/06/04 03:15:41;;;;;;;2.20;1.77;;;17.90;88.30;;;;;;5099082;27;45365;-77
2022/06/04 03:18:08;;;;;;;4.38;1.88;;;18.00;88.70;;;;;;5105011;27;47716;-77
2022/06/04 03:20:35;;;;;;;6.25;2.22;;;17.90;87.00;;;;;;5105770;27;45192;-77
2022/06/04 03:23:02;;;;;;;3.10;2.13;;;17.90;88.00;;;;;;5096223;27;45206;-77
2022/06/04 03:25:30;;;;;;;3.53;2.00;;;17.90;89.10;;;;;;5101642;27;45700;-77
2022/06/04 03:27:57;;;;;;;4.03;2.10;;;17.90;88.40;;;;;;5094127;27;46316;-77
2022/06/04 03:30:25;;;;;;;9.68;2.00;;;17.90;88.20;;;;;;5103996;27;45236;-77
2022/06/04 03:32:53;;;;;;;6.03;2.40;;;17.90;88.20;;;;;;5095711;27;45512;-77
2022/06/04 03:35:20;;;;;;;11.20;2.20;;;17.90;88.00;;;;;;5099916;27;45188;-77
2022/06/04 03:37:47;;;;;;;6.70;2.10;;;17.80;87.80;;;;;;5100424;27;47452;-77
2022/06/04 03:40:14;;;;;;;3.90;1.90;;;17.70;88.50;;;;;;5097132;27;45531;-77
2022/06/04 03:42:41;;;;;;;3.28;2.00;;;17.70;89.50;;;;;;5104999;27;45212;-77
2022/06/04 03:45:11;;;;;;;3.65;1.92;;;17.70;89.80;;;;;;5097907;27;45505;-77
2022/06/04 03:47:38;;;;;;;3.88;2.20;;;17.80;90.00;;;;;;5096166;27;46180;-77
2022/06/04 03:50:07;;;;;;;4.15;2.15;;;17.80;89.00;;;;;;5101369;27;45101;-77
2022/06/04 03:52:34;;;;;;;4.15;2.17;;;17.80;90.20;;;;;;5105572;27;45451;-77
2022/06/04 03:55:01;;;;;;;2.40;1.88;;;17.80;88.80;;;;;;5109598;27;45222;-77
2022/06/04 03:57:40;;;;;;;8.02;2.22;;;17.70;90.40;;;;;;5097982;27;47161;-77
2022/06/04 04:00:12;;;;;;;4.75;2.65;;;17.70;89.30;;;;;;5107477;27;45203;-77
2022/06/04 04:02:40;;;;;;;2.70;2.10;;;17.70;90.00;;;;;;5098122;27;45361;-77
2022/06/04 04:05:10;;;;;;;5.43;2.50;;;17.70;90.30;;;;;;5096186;27;45173;-77
2022/06/04 04:07:37;;;;;;;3.95;1.83;;;17.70;89.70;;;;;;5101598;27;46240;-77
2022/06/04 04:10:05;;;;;;;3.45;2.20;;;17.70;90.00;;;;;;5103675;27;45610;-77
2022/06/04 04:12:32;;;;;;;3.90;2.28;;;17.70;89.60;;;;;;5097271;27;45243;-77
2022/06/04 04:14:58;;;;;;;3.90;1.90;;;17.80;89.60;;;;;;5090213;27;45218;-77
2022/06/04 04:17:26;;;;;;;4.38;1.95;;;17.70;89.60;;;;;;5251378;22;47060;-77
2022/06/04 04:19:53;;;;;;;3.05;2.10;;;17.80;89.30;;;;;;5044297;28;45375;-77
2022/06/04 04:22:21;;;;;;;8.25;2.17;;;17.80;89.60;;;;;;5045150;28;45146;-77
2022/06/04 04:24:48;;;;;;;4.28;2.20;;;17.70;88.20;;;;;;5041205;28;45663;-76
2022/06/04 04:27:16;;;;;;;6.15;2.10;;;17.70;89.40;;;;;;5036660;28;45320;-77
2022/06/04 04:29:43;;;;;;;2.30;1.85;;;17.70;90.00;;;;;;5042318;28;45401;-77
2022/06/04 04:32:10;;;;;;;3.15;2.50;;;17.70;90.00;;;;;;5044655;28;45240;-77
2022/06/04 04:34:37;;;;;;;5.72;2.45;;;17.70;89.40;;;;;;5039819;28;45327;-77
2022/06/04 04:37:05;;;;;;;4.13;2.22;;;17.70;90.00;;;;;;5042399;28;46537;-76
2022/06/04 04:39:33;;;;;;;3.55;2.20;;;17.70;88.60;;;;;;5039388;28;46326;-77
2022/06/04 04:41:59;;;;;;;3.40;2.30;;;17.70;90.30;;;;;;5034006;28;45236;-77
2022/06/04 04:44:26;;;;;;;3.03;2.10;;;17.70;89.30;;;;;;5042833;28;45318;-77
2022/06/04 04:46:53;;;;;;;2.75;1.95;;;17.70;89.70;;;;;;5037612;28;48177;-77
2022/06/04 04:49:21;;;;;;;6.88;1.90;;;17.80;89.10;;;;;;5045165;28;45297;-77
2022/06/04 04:51:48;;;;;;;2.88;2.15;;;17.80;90.10;;;;;;5046164;28;45359;-76
2022/06/04 04:54:15;;;;;;;4.28;2.10;;;17.80;90.00;;;;;;5042373;28;45380;-77
2022/06/04 04:56:44;;;;;;;5.35;2.20;;;17.80;90.00;;;;;;5044379;28;48057;-77
2022/06/04 04:59:11;;;;;;;3.67;2.33;;;17.90;89.80;;;;;;5045638;28;45680;-77
2022/06/04 05:01:38;;;;;;;5.60;1.70;;;17.90;89.20;;;;;;5039768;28;46288;-77
2022/06/04 05:04:05;;;;;;;3.67;2.45;;;18.00;89.90;;;;;;5043369;28;45356;-77
2022/06/04 05:06:32;;;;;;;6.30;2.45;;;18.00;89.80;;;;;;5045376;28;47375;-77
2022/06/04 05:08:59;;;;;;;2.90;1.90;;;18.00;88.40;;;;;;5041787;28;45308;-77
2022/06/04 05:11:28;;;;;;;3.63;2.10;;;18.10;90.10;;;;;;5044224;28;45274;-77
2022/06/04 05:13:57;;;;;;;3.08;2.00;;;18.20;89.50;;;;;;5041186;28;45319;-77
2022/06/04 05:16:26;;;;;;;2.67;2.10;;;18.30;88.40;;;;;;5041995;28;45454;-77
2022/06/04 05:18:53;;;;;;;5.55;2.20;;;18.30;88.40;;;;;;5046974;28;45522;-77
2022/06/04 05:21:26;;;;;;;3.83;1.90;;;18.30;88.50;;;;;;5042173;28;45291;-77
2022/06/04 05:23:55;;;;;;;3.33;2.08;;;18.30;88.70;;;;;;5041993;28;45680;-76
2022/06/04 05:26:23;;;;;;;7.32;2.58;;;18.30;88.40;;;;;;5043702;28;47289;-77
2022/06/04 05:28:50;;;;;;;3.13;2.10;;;18.30;89.50;;;;;;5038370;28;45263;-77
2022/06/04 05:31:19;;;;;;;3.05;1.90;;;18.30;88.20;;;;;;5036549;28;45324;-77
2022/06/04 05:33:46;;;;;;;3.15;2.05;;;18.30;89.10;;;;;;5047502;28;45227;-77
2022/06/04 05:36:13;;;;;;;3.47;2.10;;;18.40;87.40;;;;;;5038521;28;47510;-77
2022/06/04 05:38:41;;;;;;;4.43;2.28;;;18.40;87.20;;;;;;5041615;28;45459;-77
2022/06/04 05:41:10;;;;;;;4.25;2.22;;;18.40;88.20;;;;;;5034667;28;46033;-77
2022/06/04 05:43:39;;;;;;;2.95;2.08;;;18.40;88.40;;;;;;5038561;28;45436;-77
2022/06/04 05:46:07;;;;;;;3.10;2.05;;;18.40;87.40;;;;;;5040390;28;46303;-77
2022/06/04 05:48:38;;;;;;;4.53;2.20;;;18.40;87.70;;;;;;5042350;28;46276;-77
2022/06/04 05:51:06;;;;;;;4.25;1.92;;;18.40;87.30;;;;;;5043239;28;45245;-77
2022/06/04 05:53:32;;;;;;;3.53;2.20;;;18.40;87.00;;;;;;5043043;28;45313;-76
2022/06/04 05:55:59;;;;;;;2.90;1.92;;;18.50;86.80;;;;;;5040883;28;46390;-77
2022/06/04 05:58:26;;;;;;;5.10;3.10;;;18.50;85.60;;;;;;5032487;28;45299;-76
2022/06/04 06:00:59;;;;;;;3.33;1.40;;;17.80;84.30;;;;;;5033039;28;46423;-66
2022/06/04 06:03:26;;;;;;;3.85;1.35;;;18.50;91.80;;;;;;5042796;28;45169;-65
2022/06/04 06:05:54;;;;;;;4.38;1.40;;;19.30;90.00;;;;;;5044250;28;45282;-65
2022/06/04 06:08:21;;;;;;;3.10;1.30;;;19.80;87.00;;;;;;5043646;28;45261;-65
2022/06/04 06:10:48;;;;;;;1.73;1.23;;;20.10;84.90;;;;;;5044499;28;45276;-65
2022/06/04 06:13:15;;;;;;;1.17;1.05;;;20.20;83.60;;;;;;5043412;28;45469;-65
2022/06/04 06:15:41;;;;;;;3.47;1.27;;;20.30;83.20;;;;;;5045043;28;48007;-65
2022/06/04 06:18:09;;;;;;;2.05;1.10;;;20.40;82.70;;;;;;5039735;28;45364;-65
2022/06/04 06:20:36;;;;;;;1.98;1.33;;;20.40;82.50;;;;;;5040947;28;45319;-65
2022/06/04 06:23:04;;;;;;;1.50;1.33;;;20.40;82.40;;;;;;5035866;28;45149;-65
2022/06/04 06:25:31;;;;;;;1.45;1.20;;;20.40;82.20;;;;;;5029645;28;46257;-65
2022/06/04 06:27:58;;;;;;;1.27;1.00;;;20.40;82.10;;;;;;5038201;28;45360;-65
2022/06/04 06:30:25;;;;;;;1.77;1.13;;;20.50;82.10;;;;;;5031810;28;45845;-65
2022/06/04 06:32:52;;;;;;;1.85;1.30;;;20.50;82.10;;;;;;5042917;28;45426;-65
2022/06/04 06:35:19;;;;;;;1.77;1.42;;;20.50;82.00;;;;;;5045451;28;48344;-65
2022/06/04 06:37:46;;;;;;;1.02;0.98;;;20.50;82.00;;;;;;5036982;28;46182;-65
2022/06/04 06:40:14;;;;;;;2.45;1.30;;;20.50;82.10;;;;;;5043240;28;45310;-65
2022/06/04 06:42:41;;;;;;;1.10;1.00;;;20.50;82.20;;;;;;5041483;28;45908;-66
2022/06/04 06:45:09;;;;;;;1.30;1.00;;;20.50;82.20;;;;;;5041124;28;45236;-66
2022/06/04 06:47:36;;;;;;;1.20;1.00;;;20.50;82.10;;;;;;5036515;28;45293;-64
2022/06/04 06:50:04;;;;;;;1.52;1.15;;;20.50;82.10;;;;;;5045245;28;45508;-65
2022/06/04 06:52:31;;;;;;;1.65;1.00;;;20.60;82.30;;;;;;5037376;28;45352;-65
2022/06/04 06:54:58;;;;;;;2.90;1.17;;;20.60;82.90;;;;;;5043682;28;47412;-65
2022/06/04 06:57:26;;;;;;;1.58;1.23;;;20.60;82.70;;;;;;5040400;28;45727;-65
2022/06/04 06:59:54;;;;;;;1.85;1.35;;;20.50;82.40;;;;;;5030563;28;46356;-65
2022/06/04 07:02:21;;;;;;;2.13;1.30;;;20.60;82.30;;;;;;5040676;28;45482;-65
2022/06/04 07:04:48;;;;;;;1.35;1.10;;;20.50;82.10;;;;;;5050751;28;45978;-65
2022/06/04 07:07:15;;;;;;;2.70;1.27;;;20.50;81.80;;;;;;5030117;28;45388;-65
2022/06/04 07:09:44;;;;;;;1.58;1.25;;;20.50;81.80;;;;;;5035849;28;45400;-65
2022/06/04 07:12:12;;;;;;;2.10;1.25;;;20.50;81.70;;;;;;5044687;28;45287;-65
2022/06/04 07:14:41;;;;;;;1.60;1.00;;;20.50;81.60;;;;;;5036646;28;46256;-65
2022/06/04 07:17:08;;;;;;;1.27;0.88;;;20.50;81.70;;;;;;5040052;28;45353;-65
2022/06/04 07:19:35;;;;;;;1.80;1.30;;;20.50;81.70;;;;;;5043216;28;45409;-65
2022/06/04 07:22:02;;;;;;;1.30;1.20;;;20.50;81.50;;;;;;5043628;28;45171;-65
2022/06/04 07:24:29;;;;;;;0.90;0.90;;;20.50;81.70;;;;;;5038260;28;47385;-65
2022/06/04 07:26:57;;;;;;;2.20;1.20;;;20.50;81.50;;;;;;5042582;28;45553;-64
2022/06/04 07:29:26;;;;;;;17.35;2.45;;;20.50;81.60;;;;;;5038407;28;45264;-66
2022/06/04 07:31:54;;;;;;;31.08;3.55;;;20.60;82.20;;;;;;5036023;28;45325;-65
2022/06/04 07:34:21;;;;;;;13.98;2.50;;;20.60;82.50;;;;;;5039870;28;47362;-66
2022/06/04 07:36:48;;;;;;;10.98;2.05;;;20.60;82.00;;;;;;5035567;28;46884;-66
2022/06/04 07:39:18;;;;;;;3.55;1.65;;;20.70;82.20;;;;;;5040814;28;45487;-66
2022/06/04 07:41:47;;;;;;;5.40;1.70;;;20.60;81.90;;;;;;5046628;28;45296;-66
2022/06/04 07:44:16;;;;;;;4.68;1.70;;;20.60;81.90;;;;;;5037130;28;47802;-66
2022/06/04 07:46:43;;;;;;;3.73;1.50;;;20.70;82.00;;;;;;5032879;28;45294;-66
2022/06/04 07:49:12;;;;;;;4.82;1.50;;;20.60;82.70;;;;;;5043832;28;45234;-66
2022/06/04 07:51:40;;;;;;;4.88;1.40;;;20.60;81.70;;;;;;5044222;28;45461;-66
2022/06/04 07:54:08;;;;;;;2.33;1.20;;;20.60;81.60;;;;;;5046871;28;45999;-66
2022/06/04 07:56:36;;;;;;;2.08;1.35;;;20.60;81.70;;;;;;5043389;28;45576;-66
2022/06/04 07:59:03;;;;;;;5.97;2.05;;;20.60;81.60;;;;;;5044810;28;45243;-64
2022/06/04 08:01:30;;;;;;;4.35;1.20;;;20.60;83.50;;;;;;5028599;28;45261;-66
2022/06/04 08:03:57;;;;;;;4.82;1.52;;;20.70;83.90;;;;;;5035788;28;46159;-68
2022/06/04 08:06:26;;;;;;;3.75;1.65;;;20.70;82.90;;;;;;5041023;28;45235;-68
2022/06/04 08:08:55;;;;;;;2.20;1.20;;;20.60;82.60;;;;;;5034011;28;45611;-68
2022/06/04 08:11:31;;;;;;;5.38;1.65;;;20.60;82.20;;;;;;5042568;28;45658;-68
2022/06/04 08:13:59;;;;;;;3.78;1.13;;;20.60;82.30;;;;;;5039265;28;47326;-68
2022/06/04 08:16:26;;;;;;;5.57;1.25;;;20.60;82.20;;;;;;5039772;28;45233;-68
2022/06/04 08:18:53;;;;;;;1.42;0.93;;;20.60;82.40;;;;;;5039008;28;45519;-68
2022/06/04 08:21:20;;;;;;;1.50;1.20;;;20.60;82.40;;;;;;5034597;28;45272;-68
2022/06/04 08:23:48;;;;;;;3.13;1.80;;;20.60;82.20;;;;;;5033532;28;47049;-68
2022/06/04 08:26:15;;;;;;;2.30;1.38;;;20.60;82.00;;;;;;5040406;28;45142;-68
2022/06/04 08:28:42;;;;;;;2.28;1.30;;;20.60;82.00;;;;;;5036536;28;45320;-68
2022/06/04 08:31:11;;;;;;;2.45;1.20;;;20.60;81.90;;;;;;5039652;28;45247;-68
2022/06/04 08:33:38;;;;;;;1.63;1.30;;;20.60;81.60;;;;;;5039105;28;46189;-67
2022/06/04 08:36:07;;;;;;;4.47;1.67;;;20.60;81.70;;;;;;5036644;28;45289;-66
2022/06/04 08:38:34;;;;;;;5.47;1.42;;;20.60;81.40;;;;;;5039908;28;45374;-66
2022/06/04 08:41:05;;;;;;;3.28;1.60;;;20.60;80.80;;;;;;5040448;28;45533;-66
2022/06/04 08:43:39;;;;;;;2.75;1.52;;;20.60;80.70;;;;;;5046316;28;45229;-66
2022/06/04 08:46:15;;;;;;;2.58;1.30;;;20.60;80.40;;;;;;5041806;28;45233;-66
2022/06/04 08:48:43;;;;;;;1.70;1.20;;;20.70;80.40;;;;;;5045160;28;45211;-66
2022/06/04 08:51:19;;;;;;;4.47;1.70;;;20.70;80.00;;;;;;5043253;28;45272;-66
2022/06/04 08:53:47;;;;;;;1.40;1.30;;;20.70;80.10;;;;;;5042699;28;48532;-66
2022/06/04 08:59:16;;;;;;;1.52;1.40;;;20.70;79.80;;;;;;5027135;28;45327;-67
2022/06/04 09:01:46;;;;;;;2.63;1.42;;;20.70;79.80;;;;;;5044277;28;45986;-67
2022/06/04 09:04:30;;;;;;;4.07;1.58;;;20.70;79.80;;;;;;5060534;28;46239;-67
2022/06/04 09:07:03;;;;;;;2.10;1.48;;;20.70;79.70;;;;;;5045364;28;45396;-67
2022/06/04 09:09:37;;;;;;;4.88;1.63;;;20.70;79.60;;;;;;5046527;28;45717;-67
2022/06/04 09:12:18;;;;;;;2.15;1.10;;;20.70;79.60;;;;;;5042057;28;46814;-66
2022/06/04 09:14:52;;;;;;;3.75;1.50;;;20.70;79.60;;;;;;5047710;28;47574;-66
2022/06/04 09:17:29;;;;;;;2.17;1.50;;;20.70;79.40;;;;;;5037733;28;45290;-67
2022/06/04 09:19:58;;;;;;;4.05;1.80;;;20.70;79.40;;;;;;5032669;28;45294;-67
2022/06/04 09:22:33;;;;;;;2.47;1.50;;;20.70;79.20;;;;;;5034906;28;45353;-66
2022/06/04 09:25:00;;;;;;;2.38;1.40;;;20.70;79.30;;;;;;5042504;28;45967;-66
2022/06/04 09:27:37;;;;;;;4.63;1.45;;;20.70;79.50;;;;;;5043612;28;45194;-66
2022/06/04 09:30:21;;;;;;;2.00;1.70;;;20.70;79.30;;;;;;5033271;28;45274;-66
2022/06/04 09:33:11;;;;;;;2.35;1.40;;;20.70;79.20;;;;;;5030665;28;45422;-66
2022/06/04 09:35:41;;;;;;;2.20;1.45;;;20.70;79.30;;;;;;5035552;28;47281;-67
2022/06/04 09:38:23;;;;;;;2.33;1.70;;;20.70;79.20;;;;;;5040098;28;45320;-66
2022/06/04 09:40:58;;;;;;;1.48;1.38;;;20.70;78.90;;;;;;5040960;28;45218;-67
2022/06/04 09:43:27;;;;;;;1.92;1.50;;;20.70;78.90;;;;;;5067824;28;45160;-66
2022/06/04 09:45:58;;;;;;;1.77;1.48;;;20.80;78.90;;;;;;5053478;28;46444;-67
2022/06/04 09:48:29;;;;;;;2.58;1.50;;;20.80;78.90;;;;;;5033153;28;45267;-66
2022/06/04 09:50:58;;;;;;;2.42;1.33;;;20.80;78.90;;;;;;5044016;28;45217;-66
2022/06/04 09:53:27;;;;;;;1.98;1.60;;;20.80;78.80;;;;;;5039765;28;45366;-66
2022/06/04 09:55:57;;;;;;;3.13;1.30;;;20.80;78.60;;;;;;5025663;28;46462;-66
2022/06/04 09:58:30;;;;;;;3.03;1.65;;;20.80;78.90;;;;;;5031249;28;45178;-66
2022/06/04 10:01:00;;;;;;;2.10;1.58;;;20.80;78.70;;;;;;5049598;28;45311;-66
2022/06/04 10:03:28;;;;;;;1.65;1.45;;;20.80;78.50;;;;;;5053728;28;45876;-66
2022/06/04 10:06:02;;;;;;;1.73;1.30;;;20.70;78.50;;;;;;5067252;28;45162;-66
2022/06/04 10:08:30;;;;;;;2.53;1.50;;;20.70;78.70;;;;;;5041436;28;45818;-66
2022/06/04 10:11:00;;;;;;;1.65;1.55;;;20.70;78.70;;;;;;5040461;28;45194;-66
2022/06/04 10:13:47;;;;;;;1.80;1.50;;;20.70;78.10;;;;;;5049058;28;45449;-65
2022/06/04 10:16:15;;;;;;;2.08;1.55;;;20.70;78.80;;;;;;5048690;28;47398;-66
2022/06/04 10:18:55;;;;;;;2.35;1.65;;;20.70;79.70;;;;;;5050309;28;45249;-66
2022/06/04 10:21:23;;;;;;;2.50;1.48;;;20.80;79.80;;;;;;5045437;28;45365;-67
2022/06/04 10:23:54;;;;;;;2.15;1.30;;;20.80;79.90;;;;;;5036585;28;45632;-66
2022/06/04 10:26:41;;;;;;;2.38;1.48;;;20.80;80.00;;;;;;5034658;28;45179;-66
2022/06/04 10:29:32;;;;;;;2.67;1.55;;;20.80;80.10;;;;;;5030193;28;45336;-66
2022/06/04 10:32:08;;;;;;;2.10;1.55;;;20.80;80.30;;;;;;5045686;28;45305;-66
2022/06/04 10:34:45;;;;;;;1.40;1.30;;;20.80;80.60;;;;;;5043372;28;45425;-66
2022/06/04 10:37:24;;;;;;;2.15;1.88;;;20.80;80.70;;;;;;5046596;28;47450;-66
2022/06/04 10:40:00;;;;;;;2.80;1.80;;;20.80;80.90;;;;;;5035022;28;45144;-66
2022/06/04 10:42:39;;;;;;;2.40;1.80;;;20.80;81.00;;;;;;5039636;28;45427;-67
2022/06/04 10:45:20;;;;;;;2.15;1.63;;;20.80;81.20;;;;;;5041450;28;45153;-66
2022/06/04 10:47:51;;;;;;;1.92;1.50;;;20.80;81.40;;;;;;5039060;28;48456;-67
2022/06/04 10:50:31;;;;;;;2.10;1.67;;;20.80;81.50;;;;;;5039789;28;45320;-67
2022/06/04 10:53:07;;;;;;;3.30;1.90;;;20.80;81.80;;;;;;5032692;28;45405;-67
2022/06/04 10:55:45;;;;;;;2.05;1.80;;;20.80;82.00;;;;;;5034534;28;45383;-67
2022/06/04 10:58:30;;;;;;;2.83;1.98;;;20.80;83.20;;;;;;5038840;28;46139;-67
2022/06/04 11:01:07;;;;;;;2.85;1.80;;;20.80;82.20;;;;;;5035669;28;45713;-67
2022/06/04 11:03:39;;;;;;;3.60;2.03;;;20.80;82.20;;;;;;5037660;28;45354;-67
2022/06/04 11:06:13;;;;;;;3.10;1.98;;;20.80;82.20;;;;;;5044835;28;45322;-67
2022/06/04 11:08:46;;;;;;;1.70;1.52;;;20.80;82.30;;;;;;5043082;28;45482;-67
2022/06/04 11:11:17;;;;;;;1.80;1.60;;;20.80;82.50;;;;;;5038723;28;45394;-67
2022/06/04 11:13:48;;;;;;;2.08;1.83;;;20.80;82.50;;;;;;5045978;28;45139;-67
2022/06/04 11:16:21;;;;;;;2.00;1.55;;;20.80;82.40;;;;;;5035246;28;45363;-68
2022/06/04 11:18:53;;;;;;;2.05;1.60;;;20.80;82.30;;;;;;5035748;28;45502;-68
2022/06/04 11:21:26;;;;;;;2.65;1.70;;;20.80;82.30;;;;;;5038919;28;46077;-68
2022/06/04 11:23:56;;;;;;;1.90;1.65;;;20.80;82.70;;;;;;5045750;28;45265;-67
2022/06/04 11:26:28;;;;;;;2.00;1.80;;;20.80;83.90;;;;;;5041196;28;47225;-67
2022/06/04 11:28:56;;;;;;;1.58;1.40;;;20.90;83.10;;;;;;5040127;28;47265;-68
2022/06/04 11:31:44;;;;;;;3.63;1.95;;;20.90;83.10;;;;;;5041418;28;45700;-68
2022/06/04 11:34:37;;;;;;;1.95;1.75;;;20.90;83.20;;;;;;5046025;28;45520;-68
2022/06/04 11:37:19;;;;;;;2.22;1.50;;;20.90;83.40;;;;;;5032497;28;45367;-67
2022/06/04 11:40:00;;;;;;;1.60;1.50;;;20.90;83.60;;;;;;5037488;28;47110;-68
2022/06/04 11:42:35;;;;;;;1.35;1.15;;;20.90;83.30;;;;;;5041154;28;45339;-67
2022/06/04 11:45:17;;;;;;;1.70;1.42;;;20.90;83.50;;;;;;5032452;28;45141;-67
2022/06/04 11:48:01;;;;;;;1.67;1.55;;;20.90;83.80;;;;;;5039034;28;45637;-68
2022/06/04 11:50:33;;;;;;;2.97;2.00;;;20.90;84.00;;;;;;5034605;28;47082;-67
2022/06/04 11:53:15;;;;;;;2.63;1.80;;;20.90;83.60;;;;;;5034974;28;46649;-67
2022/06/04 11:55:49;;;;;;;1.60;1.50;;;20.90;83.90;;;;;;5038923;28;45226;-67
2022/06/04 11:58:40;;;;;;;2.10;1.70;;;20.90;84.00;;;;;;5047408;28;45107;-67
2022/06/04 12:01:12;;;;;;;2.67;1.60;;;20.90;84.30;;;;;;5042926;28;46356;-67
2022/06/04 12:03:49;;;;;;;2.97;1.80;;;20.90;84.50;;;;;;5036340;28;45221;-65
2022/06/04 12:06:20;;;;;;;4.55;1.80;;;20.90;86.40;;;;;;5045655;28;45124;-67
2022/06/04 12:08:54;;;;;;;6.97;2.60;;;20.90;86.30;;;;;;5037423;28;45298;-68
2022/06/04 12:11:34;;;;;;;4.78;1.90;;;21.00;86.60;;;;;;5045257;28;48107;-68
2022/06/04 12:14:10;;;;;;;6.00;1.77;;;21.10;87.30;;;;;;5035235;28;45663;-68
2022/06/04 12:16:44;;;;;;;4.65;2.10;;;21.20;87.70;;;;;;5042535;28;45256;-68
2022/06/04 12:25:10;;;;;;;4.00;1.95;;;21.70;89.20;;;;;;5040200;28;45228;-68
2022/06/04 12:27:53;;;;;;;2.55;1.85;;;21.90;89.20;;;;;;5045467;28;45337;-67
2022/06/04 12:30:40;;;;;;;2.67;1.58;;;22.00;89.60;;;;;;5037188;28;46358;-68
2022/06/04 12:33:16;;;;;;;3.47;2.15;;;22.20;90.00;;;;;;5039995;28;45272;-68
2022/06/04 12:35:56;;;;;;;2.38;1.83;;;22.30;90.30;;;;;;5040195;28;45530;-68
2022/06/04 12:38:24;;;;;;;2.85;2.00;;;22.40;90.20;;;;;;5043464;28;45373;-67
2022/06/04 12:40:51;;;;;;;2.42;1.77;;;22.60;89.90;;;;;;5039396;28;45225;-67
2022/06/04 12:43:31;;;;;;;2.03;1.50;;;22.60;90.00;;;;;;5037456;28;45285;-68
2022/06/04 12:46:27;;;;;;;3.83;1.77;;;22.60;90.20;;;;;;5042754;28;45173;-68
2022/06/04 12:48:59;;;;;;;2.15;1.73;;;22.70;90.00;;;;;;5034677;28;45321;-68
2022/06/04 12:51:52;;;;;;;2.92;1.90;;;22.80;89.70;;;;;;5044735;28;45420;-68
2022/06/04 12:54:54;;;;;;;4.10;2.10;;;22.90;90.10;;;;;;5040804;28;45526;-68
2022/06/04 12:57:32;;;;;;;3.15;1.80;;;22.90;89.70;;;;;;5040090;28;45436;-67
2022/06/04 13:00:23;;;;;;;3.40;1.75;;;23.00;90.10;;;;;;5045589;28;45357;-67
2022/06/04 13:03:13;;;;;;;2.90;1.92;;;23.00;90.40;;;;;;5035263;28;45514;-68
2022/06/04 13:05:58;;;;;;;3.90;2.10;;;23.10;90.00;;;;;;5033117;28;47133;-68
2022/06/04 13:08:34;;;;;;;2.83;2.20;;;23.10;90.10;;;;;;5041145;28;45823;-67
2022/06/04 13:11:11;;;;;;;3.92;1.70;;;23.10;90.30;;;;;;5045200;28;45260;-67
2022/06/04 13:13:46;;;;;;;5.90;2.00;;;23.10;89.50;;;;;;5040209;28;45325;-68
2022/06/04 13:16:18;;;;;;;4.22;1.90;;;23.10;89.10;;;;;;5030414;28;46297;-68
2022/06/04 13:19:03;;;;;;;5.95;2.30;;;23.00;88.40;;;;;;5031402;28;45242;-68
2022/06/04 13:21:31;;;;;;;4.35;2.08;;;23.00;89.20;;;;;;5044032;28;45347;-68
2022/06/04 13:24:03;;;;;;;5.97;2.35;;;23.00;89.10;;;;;;5043634;28;45322;-68
2022/06/04 13:26:36;;;;;;;5.55;2.40;;;23.00;89.20;;;;;;5037886;28;47571;-68